createdAt,value
2023-04-18T08:32:46.555Z,9.40
2023-04-18T08:35:13.735Z,10.17
2023-04-18T09:15:16.593Z,12.27
2023-04-18T09:17:53.452Z,12.13
2023-04-18T09:20:41.516Z,11.75
2023-04-18T09:23:11.644Z,12.00
2023-04-18T09:25:44.488Z,12.00
2023-04-18T09:28:33.242Z,9.47
2023-04-18T09:31:10.524Z,15.10
2023-04-18T09:33:38.866Z,17.43
2023-04-18T09:36:23.072Z,14.27
2023-04-18T09:38:55.382Z,13.40
2023-04-18T09:41:23.753Z,11.90
2023-04-18T09:44:09.663Z,12.17
2023-04-18T09:46:38.094Z,9.07
2023-04-18T09:49:05.446Z,10.63
2023-04-18T09:54:08.519Z,15.57
2023-04-18T09:56:39.367Z,12.23
2023-04-18T09:59:09.431Z,12.53
2023-04-18T10:01:37.503Z,13.13
2023-04-18T10:04:07.976Z,11.57
2023-04-18T10:06:39.995Z,11.83
2023-04-18T10:09:09.758Z,12.90
2023-04-18T10:11:37.188Z,12.50
2023-04-18T10:14:10.654Z,12.67
2023-04-18T10:16:39.115Z,13.27
2023-04-18T10:19:27.381Z,13.27
2023-04-18T10:22:02.320Z,13.07
2023-04-18T10:24:56.428Z,12.93
2023-04-18T10:27:48.565Z,13.38
2023-04-18T10:30:17.062Z,13.63
2023-04-18T10:32:47.428Z,13.55
2023-04-18T10:35:14.580Z,13.63
2023-04-18T10:37:51.562Z,13.23
2023-04-18T10:40:35.420Z,12.75
2023-04-18T10:43:02.713Z,13.60
2023-04-18T10:45:36.477Z,13.57
2023-04-18T10:48:27.716Z,14.38
2023-04-18T10:51:24.195Z,13.30
2023-04-18T10:53:58.316Z,13.65
2023-04-18T10:56:28.187Z,13.68
2023-04-18T10:58:56.465Z,12.75
2023-04-18T11:01:32.769Z,13.00
2023-04-18T11:04:00.968Z,12.93
2023-04-18T11:06:29.057Z,13.50
2023-04-18T11:09:13.984Z,13.27
2023-04-18T11:11:42.218Z,13.90
2023-04-18T11:14:10.082Z,13.27
2023-04-18T11:16:37.366Z,13.15
2023-04-18T11:19:24.259Z,13.40
2023-04-18T11:21:52.048Z,12.95
2023-04-18T11:24:24.353Z,13.60
2023-04-18T11:26:56.162Z,13.48
2023-04-18T11:29:23.582Z,13.77
2023-04-18T11:31:55.258Z,13.27
2023-04-18T11:34:32.657Z,12.48
2023-04-18T11:37:00.340Z,13.35
2023-04-18T11:39:28.153Z,13.13
2023-04-18T11:41:57.212Z,12.98
2023-04-18T11:44:26.186Z,13.75
2023-04-18T11:46:54.312Z,13.23
2023-04-18T11:49:26.359Z,13.38
2023-04-18T11:51:53.866Z,14.07
2023-04-18T11:54:41.388Z,12.73
2023-04-18T11:57:22.511Z,12.70
2023-04-18T11:59:58.370Z,11.57
2023-04-18T12:02:39.318Z,10.93
2023-04-18T12:05:07.341Z,12.60
2023-04-18T12:18:05.165Z,11.02
2023-04-18T12:20:37.194Z,11.43
2023-04-18T12:23:05.267Z,10.03
2023-04-18T12:25:32.838Z,10.87
2023-04-18T12:28:15.293Z,8.87
2023-04-18T12:30:42.887Z,10.40
2023-04-18T12:33:10.196Z,9.73
2023-04-18T12:35:38.034Z,12.50
2023-04-18T12:38:06.189Z,9.77
2023-04-18T12:40:33.471Z,9.50
2023-04-18T12:57:55.807Z,8.83
2023-04-18T13:00:27.408Z,9.50
2023-04-18T13:02:54.896Z,8.47
2023-04-18T13:05:25.661Z,9.50
2023-04-18T13:08:08.478Z,9.07
2023-04-18T13:10:41.621Z,9.03
2023-04-18T13:13:08.751Z,8.17
2023-04-18T13:15:36.445Z,9.00
2023-04-18T13:18:06.475Z,10.87
2023-04-18T13:20:35.167Z,8.70
2023-04-18T13:23:06.322Z,9.07
2023-04-18T13:25:34.217Z,10.53
2023-04-18T13:28:01.971Z,8.53
2023-04-18T13:30:29.620Z,8.47
2023-04-18T13:32:57.286Z,8.80
2023-04-18T13:35:24.948Z,8.00
2023-04-18T13:37:52.498Z,7.10
2023-04-18T13:40:20.147Z,7.80
2023-04-18T13:42:47.690Z,7.67
2023-04-18T13:45:15.089Z,7.00
2023-04-18T13:47:42.812Z,6.93
2023-04-18T13:50:11.223Z,8.00
2023-04-18T13:52:38.772Z,7.23
2023-04-18T13:55:07.060Z,8.67
2023-04-18T13:57:34.988Z,6.27
2023-04-18T14:00:02.536Z,7.03
2023-04-18T14:02:30.219Z,6.87
2023-04-18T14:04:58.548Z,6.57
2023-04-18T14:07:30.511Z,6.13
2023-04-18T14:09:58.391Z,6.40
2023-04-18T14:12:26.268Z,6.87
2023-04-18T14:14:54.171Z,6.90
2023-04-18T14:17:21.310Z,7.00
2023-04-18T14:19:49.472Z,7.87
2023-04-18T14:24:43.796Z,7.45
2023-04-18T14:27:11.091Z,7.27
2023-04-18T14:29:38.250Z,7.00
2023-04-18T14:32:07.117Z,6.50
2023-04-18T14:34:35.883Z,6.70
2023-04-18T14:37:03.947Z,7.57
2023-04-18T14:39:31.792Z,6.20
2023-04-18T14:41:58.945Z,6.87
2023-04-18T14:44:26.086Z,6.20
2023-04-18T14:46:53.296Z,6.93
2023-04-18T14:49:20.462Z,6.33
2023-04-18T14:51:47.532Z,8.57
2023-04-18T14:54:15.152Z,6.17
2023-04-18T14:56:42.298Z,6.93
2023-04-18T14:59:09.505Z,6.67
2023-04-18T15:01:36.753Z,6.60
2023-04-18T15:04:04.585Z,6.07
2023-04-18T15:06:32.744Z,5.90
2023-04-18T15:08:59.942Z,5.70
2023-04-18T15:11:27.575Z,5.43
2023-04-18T15:13:54.763Z,6.13
2023-04-18T15:16:21.908Z,6.37
2023-04-18T15:18:49.002Z,6.33
2023-04-18T15:21:16.140Z,5.50
2023-04-18T15:23:43.248Z,6.53
2023-04-18T15:26:10.465Z,6.33
2023-04-18T15:28:37.659Z,6.10
2023-04-18T15:31:07.582Z,6.03
2023-04-18T15:33:34.861Z,5.60
2023-04-18T15:36:02.012Z,5.93
2023-04-18T15:38:32.749Z,5.13
2023-04-18T15:41:00.207Z,6.17
2023-04-18T15:43:28.096Z,5.63
2023-04-18T15:45:55.290Z,6.07
2023-04-18T15:48:23.776Z,5.80
2023-04-18T15:50:52.176Z,6.00
2023-04-18T15:53:19.822Z,5.30
2023-04-18T15:58:14.302Z,5.43
2023-04-18T16:00:41.820Z,5.80
2023-04-18T16:03:10.493Z,6.47
2023-04-18T16:05:37.904Z,7.37
2023-04-18T16:08:05.064Z,5.37
2023-04-18T16:10:32.643Z,5.97
2023-04-18T16:12:59.746Z,6.97
2023-04-18T16:15:27.233Z,7.70
2023-04-18T16:17:54.791Z,6.00
2023-04-18T16:20:22.114Z,8.67
2023-04-18T16:22:49.595Z,6.20
2023-04-18T16:25:16.770Z,6.40
2023-04-18T16:30:11.693Z,7.33
2023-04-18T16:32:39.231Z,7.63
2023-04-18T16:35:10.161Z,6.57
2023-04-18T16:37:39.287Z,7.57
2023-04-18T16:40:09.971Z,10.33
2023-04-18T16:42:37.519Z,6.90
2023-04-18T16:45:05.134Z,6.70
2023-04-18T16:47:32.318Z,7.07
2023-04-18T16:50:00.537Z,12.97
2023-04-18T16:52:27.826Z,5.97
2023-04-18T16:54:54.981Z,6.17
2023-04-18T16:57:22.138Z,7.33
2023-04-18T16:59:49.252Z,6.30
2023-04-18T17:02:16.490Z,6.60
2023-04-18T17:04:43.757Z,7.07
2023-04-18T17:07:10.932Z,7.57
2023-04-18T17:09:38.080Z,8.33
2023-04-18T17:24:22.691Z,8.07
2023-04-18T18:36:17.569Z,6.95
2023-04-18T18:38:56.567Z,6.63
2023-04-18T18:41:30.459Z,8.53
2023-04-18T18:44:09.677Z,6.80
2023-04-18T18:46:38.541Z,7.23
2023-04-18T18:49:07.176Z,7.50
2023-04-18T18:51:36.566Z,18.47
2023-04-18T18:54:08.175Z,6.90
2023-04-18T18:56:35.422Z,7.47
2023-04-18T18:59:02.573Z,6.20
2023-04-18T19:01:30.668Z,7.37
2023-04-18T19:03:58.151Z,6.83
2023-04-18T19:06:26.604Z,7.30
2023-04-18T19:08:55.254Z,7.20
2023-04-18T19:11:23.617Z,8.33
2023-04-18T19:13:55.103Z,6.90
2023-04-18T19:16:23.775Z,7.43
2023-04-18T19:18:51.288Z,6.70
2023-04-18T19:21:20.600Z,8.83
2023-04-18T19:23:48.226Z,7.33
2023-04-18T19:26:17.809Z,6.77
2023-04-18T19:28:46.321Z,7.07
2023-04-18T19:31:16.051Z,6.50
2023-04-18T19:33:43.273Z,7.43
2023-04-18T19:36:10.517Z,7.03
2023-04-18T19:38:37.792Z,10.57
2023-04-18T19:41:04.920Z,7.87
2023-04-18T19:43:32.960Z,9.63
2023-04-18T19:46:00.628Z,8.83
2023-04-18T19:48:28.220Z,7.93
2023-04-18T19:50:57.083Z,10.80
2023-04-18T19:53:24.222Z,8.03
2023-04-18T19:55:51.833Z,7.27
2023-04-18T19:58:45.421Z,8.23
2023-04-18T20:01:20.393Z,8.23
2023-04-18T20:03:48.330Z,9.30
2023-04-18T20:06:17.965Z,9.17
2023-04-18T20:08:46.304Z,7.30
2023-04-18T20:11:14.514Z,7.70
2023-04-18T20:13:41.760Z,7.00
2023-04-18T20:16:09.571Z,8.17
2023-04-18T20:18:41.734Z,8.93
2023-04-18T20:21:10.997Z,8.13
2023-04-18T20:23:39.579Z,7.53
2023-04-18T20:26:07.283Z,7.93
2023-04-18T20:28:40.732Z,8.37
2023-04-18T20:31:14.914Z,8.00
2023-04-18T20:33:42.380Z,7.90
2023-04-18T20:36:10.007Z,8.07
2023-04-18T20:38:38.181Z,8.97
2023-04-18T20:41:05.534Z,8.33
2023-04-18T20:43:36.731Z,10.53
2023-04-18T20:46:03.884Z,8.37
2023-04-18T20:48:31.105Z,9.10
2023-04-18T20:50:58.282Z,8.90
2023-04-18T20:53:27.157Z,8.53
2023-04-18T20:55:55.311Z,10.60
2023-04-18T20:58:22.553Z,9.33
2023-04-18T21:00:49.684Z,9.17
2023-04-18T21:03:18.611Z,9.90
2023-04-18T21:05:46.323Z,10.27
2023-04-18T21:08:13.960Z,12.20
2023-04-18T21:10:41.834Z,10.30
2023-04-18T21:13:09.396Z,10.50
2023-04-18T21:15:36.836Z,12.40
2023-04-18T21:18:04.087Z,11.03
2023-04-18T21:20:31.510Z,10.93
2023-04-18T21:22:59.044Z,11.17
2023-04-18T21:25:29.157Z,11.13
2023-04-18T21:27:56.699Z,11.57
2023-04-18T21:30:24.413Z,12.43
2023-04-18T21:32:51.983Z,11.30
2023-04-18T21:35:20.263Z,10.00
2023-04-18T21:37:49.514Z,10.60
2023-04-18T21:40:17.267Z,10.50
2023-04-18T21:42:45.143Z,11.00
2023-04-18T21:45:12.796Z,10.73
2023-04-18T21:47:40.280Z,11.43
2023-04-18T21:50:08.812Z,11.77
2023-04-18T21:52:37.117Z,11.27
2023-04-18T21:55:05.176Z,11.37
2023-04-18T21:57:32.699Z,14.50
2023-04-18T22:00:00.195Z,11.47
2023-04-18T22:02:28.195Z,12.57
2023-04-18T22:04:55.870Z,13.60
2023-04-18T22:07:24.891Z,12.37
2023-04-18T22:09:52.505Z,11.30
2023-04-18T22:12:19.963Z,11.23
2023-04-18T22:14:48.737Z,11.47
2023-04-18T22:17:16.366Z,12.53
2023-04-18T22:19:44.824Z,11.57
2023-04-18T22:22:12.246Z,10.50
2023-04-18T22:24:40.111Z,11.13
2023-04-18T22:27:07.739Z,11.07
2023-04-18T22:29:35.675Z,10.00
2023-04-18T22:32:03.292Z,11.67
2023-04-18T22:34:30.920Z,11.37
2023-04-18T22:36:58.512Z,10.37
2023-04-18T22:39:26.557Z,9.80
2023-04-18T22:41:54.118Z,10.00
2023-04-18T22:44:21.581Z,10.87
2023-04-18T22:46:49.817Z,9.37
2023-04-18T22:49:18.230Z,10.10
2023-04-18T22:51:46.641Z,12.10
2023-04-18T22:54:14.384Z,11.70
2023-04-18T22:56:42.026Z,11.57
2023-04-18T22:59:09.465Z,10.10
2023-04-18T23:01:36.891Z,10.77
2023-04-18T23:04:04.668Z,9.43
2023-04-18T23:06:32.807Z,9.67
2023-04-18T23:09:00.282Z,10.57
2023-04-18T23:11:28.301Z,10.83
2023-04-18T23:13:55.814Z,9.50
2023-04-18T23:16:23.413Z,9.03
2023-04-18T23:18:50.780Z,10.07
2023-04-18T23:21:18.595Z,11.53
2023-04-18T23:23:46.173Z,9.40
2023-04-18T23:26:15.443Z,10.57
2023-04-18T23:28:43.118Z,10.07
2023-04-18T23:31:10.866Z,10.23
2023-04-18T23:33:38.446Z,9.77
2023-04-18T23:36:06.890Z,11.27
2023-04-18T23:38:34.626Z,11.23
2023-04-18T23:41:02.115Z,10.43
2023-04-18T23:43:29.889Z,8.73
2023-04-18T23:45:57.404Z,8.63
2023-04-18T23:48:25.006Z,8.77
2023-04-18T23:50:53.147Z,9.90
2023-04-18T23:53:22.298Z,8.70
2023-04-18T23:55:51.177Z,7.93
2023-04-18T23:58:18.757Z,8.70
